Time;durP1;ratioP1;P1;durP2;ratioP2;P2;SDS_P1;SDS_P2;PMS_P1;PMS_P2;Temp;Humidity;BMP_temperature;BMP_pressure;BME280_temperature;BME280_humidity;BME280_pressure;Samples;Min_cycle;Max_cycle;Signal;HPM_P1;HPM_P2
2022/02/12 00:00:58;;;;;;;6.93;2.10;;;;;;;;;;6213896;23;19997;-74
2022/02/12 00:03:24;;;;;;;14.00;2.35;;;;;;;;;;6213391;23;20449;-74
2022/02/12 00:05:49;;;;;;;7.82;1.58;;;;;;;;;;6214266;23;20027;-74
2022/02/12 00:08:14;;;;;;;8.65;1.63;;;;;;;;;;6214051;23;20028;-73
2022/02/12 00:10:40;;;;;;;9.43;1.90;;;;;;;;;;6213839;23;19997;-73
2022/02/12 00:13:11;;;;;;;18.88;2.28;;;;;;;;;;6213554;23;20011;-73
2022/02/12 00:15:36;;;;;;;9.95;2.08;;;;;;;;;;6213784;23;20000;-73
2022/02/12 00:18:02;;;;;;;11.82;3.78;;;;;;;;;;6214115;23;20374;-73
2022/02/12 00:20:27;;;;;;;7.28;2.00;;;;;;;;;;6213976;23;20419;-74
2022/02/12 00:22:52;;;;;;;9.93;2.13;;;;;;;;;;6212022;23;20008;-74
2022/02/12 00:25:17;;;;;;;8.13;1.90;;;;;;;;;;6213711;23;19993;-73
2022/02/12 00:27:43;;;;;;;12.27;1.88;;;;;;;;;;6213787;23;20004;-73
2022/02/12 00:30:08;;;;;;;7.57;2.22;;;;;;;;;;6214254;23;20008;-73
2022/02/12 00:32:33;;;;;;;8.60;1.77;;;;;;;;;;6215588;23;20311;-73
2022/02/12 00:34:59;;;;;;;8.02;1.80;;;;;;;;;;6215528;23;20001;-75
2022/02/12 00:37:26;;;;;;;14.25;1.73;;;;;;;;;;6215768;23;20000;-74
2022/02/12 00:39:51;;;;;;;6.05;1.67;;;;;;;;;;6215657;23;20410;-73
2022/02/12 00:42:18;;;;;;;15.48;2.50;;;;;;;;;;6215638;23;20000;-73
2022/02/12 00:44:43;;;;;;;12.07;3.15;;;;;;;;;;6215750;23;20000;-73
2022/02/12 00:47:09;;;;;;;8.30;1.60;;;;;;;;;;6215760;23;20034;-74
2022/02/12 00:49:35;;;;;;;9.27;1.98;;;;;;;;;;6189020;23;20393;-74
2022/02/12 00:52:00;;;;;;;10.13;2.55;;;;;;;;;;6216676;23;20000;-74
2022/02/12 00:54:25;;;;;;;8.52;1.98;;;;;;;;;;6215657;23;20024;-73
2022/02/12 00:56:50;;;;;;;12.23;3.67;;;;;;;;;;6215591;23;20004;-73
2022/02/12 00:59:15;;;;;;;17.90;3.17;;;;;;;;;;6215539;23;19992;-73
2022/02/12 01:01:41;;;;;;;18.50;5.43;;;;;;;;;;6215335;23;20004;-73
2022/02/12 01:04:06;;;;;;;9.77;2.67;;;;;;;;;;6215225;23;20020;-73
2022/02/12 01:06:32;;;;;;;5.82;1.90;;;;;;;;;;6215214;23;20001;-73
2022/02/12 01:08:57;;;;;;;7.22;2.15;;;;;;;;;;6215386;23;20330;-74
2022/02/12 01:11:22;;;;;;;13.80;2.25;;;;;;;;;;6215177;23;20039;-73
2022/02/12 01:13:47;;;;;;;9.20;1.87;;;;;;;;;;6215084;23;20565;-73
2022/02/12 01:16:13;;;;;;;15.83;2.97;;;;;;;;;;6215143;23;20442;-73
2022/02/12 01:18:38;;;;;;;9.82;1.83;;;;;;;;;;6188674;23;19993;-73
2022/02/12 01:21:03;;;;;;;9.95;1.80;;;;;;;;;;6215357;23;20067;-73
2022/02/12 01:23:28;;;;;;;5.32;1.80;;;;;;;;;;6214919;23;20004;-74
2022/02/12 01:25:54;;;;;;;13.60;2.30;;;;;;;;;;6215145;23;19992;-73
2022/02/12 01:28:19;;;;;;;12.13;1.80;;;;;;;;;;6213791;23;20004;-74
2022/02/12 01:30:44;;;;;;;12.13;2.20;;;;;;;;;;6215402;23;20090;-73
2022/02/12 01:33:10;;;;;;;12.50;2.40;;;;;;;;;;6215444;23;20000;-73
2022/02/12 01:35:35;;;;;;;12.70;2.30;;;;;;;;;;6215516;23;20003;-74
2022/02/12 01:38:00;;;;;;;10.45;1.98;;;;;;;;;;6215150;23;20557;-74
2022/02/12 01:40:27;;;;;;;11.00;2.67;;;;;;;;;;6215059;23;19997;-74
2022/02/12 01:42:52;;;;;;;8.47;2.43;;;;;;;;;;6214960;23;19997;-74
2022/02/12 01:45:17;;;;;;;10.57;1.93;;;;;;;;;;6215140;23;20415;-73
2022/02/12 01:47:43;;;;;;;7.23;1.93;;;;;;;;;;6215400;23;20000;-73
2022/02/12 01:50:08;;;;;;;7.20;2.40;;;;;;;;;;6215120;23;20010;-73
2022/02/12 01:52:36;;;;;;;8.88;2.45;;;;;;;;;;6214875;23;20011;-73
2022/02/12 01:55:02;;;;;;;10.93;2.30;;;;;;;;;;6215797;23;20002;-73
2022/02/12 01:57:27;;;;;;;10.00;2.85;;;;;;;;;;6215636;23;19997;-74
2022/02/12 01:59:52;;;;;;;6.83;2.07;;;;;;;;;;6215213;23;20007;-74
2022/02/12 02:02:17;;;;;;;12.80;2.47;;;;;;;;;;6214770;23;20000;-73
2022/02/12 02:04:43;;;;;;;10.03;2.20;;;;;;;;;;6214980;23;20001;-73
2022/02/12 02:07:11;;;;;;;12.05;2.30;;;;;;;;;;6214697;23;20329;-73
2022/02/12 02:09:36;;;;;;;12.60;1.95;;;;;;;;;;6214915;23;20083;-73
2022/02/12 02:12:02;;;;;;;11.43;2.80;;;;;;;;;;6188089;23;20035;-73
2022/02/12 02:14:34;;;;;;;7.37;2.13;;;;;;;;;;6215036;23;19996;-73
2022/02/12 02:17:00;;;;;;;7.80;2.70;;;;;;;;;;6187571;23;20004;-73
2022/02/12 02:19:25;;;;;;;7.57;2.70;;;;;;;;;;6214579;23;20004;-74
2022/02/12 02:21:52;;;;;;;5.97;2.03;;;;;;;;;;6187761;23;20000;-74
2022/02/12 02:24:18;;;;;;;10.10;2.73;;;;;;;;;;6213415;23;20027;-73
2022/02/12 02:26:43;;;;;;;10.80;2.53;;;;;;;;;;6214709;23;20422;-72
2022/02/12 02:29:08;;;;;;;13.87;2.20;;;;;;;;;;6214860;23;20087;-73
2022/02/12 02:31:33;;;;;;;7.27;1.90;;;;;;;;;;6214606;23;20004;-73
2022/02/12 02:33:59;;;;;;;12.43;1.90;;;;;;;;;;6214143;23;20011;-72
2022/02/12 02:36:24;;;;;;;8.43;2.10;;;;;;;;;;6214318;23;20007;-73
2022/02/12 02:38:49;;;;;;;9.63;1.70;;;;;;;;;;6214623;23;20071;-73
2022/02/12 02:41:14;;;;;;;11.43;1.80;;;;;;;;;;6214567;23;20000;-73
2022/02/12 02:43:40;;;;;;;9.37;1.53;;;;;;;;;;6214300;23;19993;-73
2022/02/12 02:46:05;;;;;;;8.40;1.73;;;;;;;;;;6214273;23;20008;-72
2022/02/12 02:48:30;;;;;;;8.07;2.00;;;;;;;;;;6214619;23;20043;-73
2022/02/12 02:56:23;;;;;;;9.53;2.13;;;;;;;;;;6214311;23;20500;-73
2022/02/12 02:58:49;;;;;;;6.87;1.70;;;;;;;;;;6188356;23;20079;-73
2022/02/12 03:01:19;;;;;;;7.73;1.53;;;;;;;;;;6187832;23;20335;-72
2022/02/12 03:03:46;;;;;;;7.30;1.43;;;;;;;;;;6214134;23;20064;-73
2022/02/12 03:06:12;;;;;;;6.23;1.57;;;;;;;;;;6214209;23;19993;-74
2022/02/12 03:08:38;;;;;;;11.33;1.67;;;;;;;;;;6214255;23;19997;-73
2022/02/12 03:11:04;;;;;;;12.13;1.70;;;;;;;;;;6214273;23;20000;-74
2022/02/12 03:13:30;;;;;;;10.33;1.83;;;;;;;;;;6213929;23;20122;-73
2022/02/12 03:15:55;;;;;;;9.53;2.27;;;;;;;;;;6214140;23;20040;-73
2022/02/12 03:18:20;;;;;;;6.43;1.77;;;;;;;;;;6213992;23;20001;-72
2022/02/12 03:20:45;;;;;;;10.23;1.90;;;;;;;;;;6214252;23;20071;-73
2022/02/12 03:23:11;;;;;;;6.17;1.77;;;;;;;;;;6214165;23;19996;-73
2022/02/12 03:25:37;;;;;;;6.20;1.77;;;;;;;;;;6187461;23;20080;-73
2022/02/12 03:28:03;;;;;;;10.50;2.40;;;;;;;;;;6214219;23;20043;-73
2022/02/12 03:30:30;;;;;;;8.80;1.70;;;;;;;;;;6214187;23;20001;-73
2022/02/12 03:32:55;;;;;;;13.77;1.90;;;;;;;;;;6213752;23;20003;-73
2022/02/12 03:35:22;;;;;;;8.00;1.83;;;;;;;;;;6213798;23;20071;-73
2022/02/12 03:37:48;;;;;;;7.53;1.67;;;;;;;;;;6187177;23;20000;-73
2022/02/12 03:40:13;;;;;;;9.97;1.73;;;;;;;;;;6213950;23;20003;-72
2022/02/12 03:42:39;;;;;;;11.10;1.50;;;;;;;;;;6213895;23;20028;-73
2022/02/12 03:45:05;;;;;;;3.37;1.30;;;;;;;;;;6213714;23;20373;-73
2022/02/12 03:47:30;;;;;;;5.17;1.63;;;;;;;;;;6213826;23;20000;-73
2022/02/12 03:49:55;;;;;;;7.63;2.10;;;;;;;;;;6213957;23;20450;-73
2022/02/12 03:52:20;;;;;;;6.37;1.50;;;;;;;;;;6213888;23;20047;-73
2022/02/12 03:54:45;;;;;;;9.33;1.80;;;;;;;;;;6213968;23;20048;-73
2022/02/12 03:57:11;;;;;;;9.73;1.77;;;;;;;;;;6213719;23;20028;-73
2022/02/12 03:59:36;;;;;;;6.23;1.50;;;;;;;;;;6214305;23;20001;-74
2022/02/12 04:02:03;;;;;;;9.47;2.40;;;;;;;;;;6214964;23;20064;-73
2022/02/12 04:04:28;;;;;;;6.53;1.67;;;;;;;;;;6214390;23;20072;-73
2022/02/12 04:06:53;;;;;;;9.03;2.10;;;;;;;;;;6215800;23;20428;-74
2022/02/12 04:09:19;;;;;;;5.80;1.57;;;;;;;;;;6216125;23;20004;-73
2022/02/12 04:11:44;;;;;;;8.60;1.83;;;;;;;;;;6215819;23;20004;-73
2022/02/12 04:14:10;;;;;;;7.20;1.75;;;;;;;;;;6216077;23;20333;-73
2022/02/12 04:16:35;;;;;;;4.80;1.40;;;;;;;;;;6215700;23;19996;-73
2022/02/12 04:19:00;;;;;;;9.23;2.50;;;;;;;;;;6215898;23;20003;-73
2022/02/12 04:21:25;;;;;;;12.83;2.17;;;;;;;;;;6214126;23;20028;-73
2022/02/12 04:23:50;;;;;;;9.13;2.17;;;;;;;;;;6215563;23;19993;-73
2022/02/12 04:26:15;;;;;;;10.98;1.90;;;;;;;;;;6188959;23;20329;-73
2022/02/12 04:28:41;;;;;;;5.60;1.50;;;;;;;;;;6214193;23;20001;-72
2022/02/12 04:31:06;;;;;;;8.77;1.97;;;;;;;;;;6215635;23;20005;-73
2022/02/12 04:33:32;;;;;;;8.50;1.67;;;;;;;;;;6215505;23;20329;-73
2022/02/12 04:35:57;;;;;;;10.43;1.83;;;;;;;;;;6215419;23;20426;-72
2022/02/12 04:38:22;;;;;;;10.40;1.67;;;;;;;;;;6215594;23;20373;-73
2022/02/12 04:40:47;;;;;;;10.60;2.53;;;;;;;;;;6215566;23;20003;-73
2022/02/12 04:43:13;;;;;;;12.95;2.80;;;;;;;;;;6215437;23;19993;-73
2022/02/12 04:45:38;;;;;;;8.68;1.65;;;;;;;;;;6215286;23;20001;-73
2022/02/12 04:48:03;;;;;;;12.65;2.08;;;;;;;;;;6189285;23;20007;-73
2022/02/12 04:50:29;;;;;;;7.60;1.75;;;;;;;;;;6189187;23;20075;-72
2022/02/12 04:52:55;;;;;;;8.97;2.13;;;;;;;;;;6215255;23;20494;-73
2022/02/12 04:55:20;;;;;;;6.70;1.57;;;;;;;;;;6215461;23;20035;-73
2022/02/12 04:57:45;;;;;;;8.93;1.80;;;;;;;;;;6215536;23;20028;-73
2022/02/12 05:00:11;;;;;;;6.70;1.97;;;;;;;;;;6215609;23;19992;-72
2022/02/12 05:02:36;;;;;;;10.23;2.00;;;;;;;;;;6188397;23;19993;-73
2022/02/12 05:05:02;;;;;;;13.68;2.25;;;;;;;;;;6215955;23;19997;-73
2022/02/12 05:07:27;;;;;;;6.80;1.70;;;;;;;;;;6215982;23;20007;-73
2022/02/12 05:09:53;;;;;;;11.30;1.93;;;;;;;;;;6215573;23;20098;-73
2022/02/12 05:12:18;;;;;;;14.23;1.75;;;;;;;;;;6188523;23;20016;-73
2022/02/12 05:14:43;;;;;;;7.53;1.67;;;;;;;;;;6215234;23;20115;-73
2022/02/12 05:17:08;;;;;;;7.32;1.50;;;;;;;;;;6214764;23;20438;-73
2022/02/12 05:19:34;;;;;;;5.13;1.57;;;;;;;;;;6215223;23;20448;-73
2022/02/12 05:21:59;;;;;;;5.77;1.80;;;;;;;;;;6215257;23;19996;-73
2022/02/12 05:24:24;;;;;;;15.60;2.13;;;;;;;;;;6215186;23;20501;-73
2022/02/12 05:26:50;;;;;;;10.15;1.92;;;;;;;;;;6188495;23;20334;-73
2022/02/12 05:29:15;;;;;;;11.37;2.33;;;;;;;;;;6215180;23;20005;-73
2022/02/12 05:31:40;;;;;;;9.43;1.93;;;;;;;;;;6214908;23;19992;-72
2022/02/12 05:34:05;;;;;;;7.43;1.90;;;;;;;;;;6214651;23;20028;-73
2022/02/12 05:36:30;;;;;;;9.03;2.20;;;;;;;;;;6214877;23;20004;-73
2022/02/12 05:38:56;;;;;;;11.40;2.17;;;;;;;;;;6215086;23;19997;-73
2022/02/12 05:41:21;;;;;;;8.77;2.47;;;;;;;;;;6188216;23;20007;-73
2022/02/12 05:43:47;;;;;;;9.43;1.97;;;;;;;;;;6214809;23;20007;-73
2022/02/12 05:46:12;;;;;;;10.33;2.03;;;;;;;;;;6214765;23;20012;-73
2022/02/12 05:48:37;;;;;;;7.47;1.70;;;;;;;;;;6214871;23;20012;-73
2022/02/12 05:51:03;;;;;;;6.23;1.83;;;;;;;;;;6215007;23;20533;-73
2022/02/12 05:53:28;;;;;;;14.23;2.10;;;;;;;;;;6214723;23;19997;-73
2022/02/12 05:55:53;;;;;;;11.37;2.00;;;;;;;;;;6214874;23;20418;-73
2022/02/12 05:58:19;;;;;;;8.93;1.97;;;;;;;;;;6214911;23;20000;-73
2022/02/12 06:00:44;;;;;;;10.30;1.80;;;;;;;;;;6214964;23;19996;-73
2022/02/12 06:03:09;;;;;;;9.53;1.93;;;;;;;;;;6214695;23;20067;-73
2022/02/12 06:05:35;;;;;;;5.50;1.63;;;;;;;;;;6214964;23;19993;-73
2022/02/12 06:08:01;;;;;;;10.40;2.67;;;;;;;;;;6215520;23;20434;-73
2022/02/12 06:10:27;;;;;;;7.13;1.77;;;;;;;;;;6214893;23;20020;-73
2022/02/12 06:12:52;;;;;;;11.35;1.58;;;;;;;;;;6214574;23;20001;-73
2022/02/12 06:15:18;;;;;;;6.13;1.70;;;;;;;;;;6214346;23;20003;-73
2022/02/12 06:17:43;;;;;;;13.53;2.03;;;;;;;;;;6214656;23;20159;-73
2022/02/12 06:20:08;;;;;;;8.90;2.27;;;;;;;;;;6214744;23;20000;-73
2022/02/12 06:22:34;;;;;;;7.77;2.20;;;;;;;;;;6214524;23;20457;-72
2022/02/12 06:24:59;;;;;;;10.93;2.13;;;;;;;;;;6214624;23;20059;-73
2022/02/12 06:27:25;;;;;;;16.77;2.57;;;;;;;;;;6187637;23;20442;-73
2022/02/12 06:29:50;;;;;;;8.17;1.70;;;;;;;;;;6187867;23;20027;-73
2022/02/12 06:32:15;;;;;;;8.33;2.60;;;;;;;;;;6214426;23;20426;-72
2022/02/12 06:34:41;;;;;;;13.27;2.10;;;;;;;;;;6214576;23;19997;-73
2022/02/12 06:37:06;;;;;;;7.67;2.30;;;;;;;;;;6214420;23;20001;-73
2022/02/12 06:39:31;;;;;;;8.50;2.00;;;;;;;;;;6214604;23;20024;-73
2022/02/12 06:41:56;;;;;;;5.20;2.00;;;;;;;;;;6214161;23;19997;-72
2022/02/12 06:44:22;;;;;;;9.33;2.30;;;;;;;;;;6214419;23;20303;-73
2022/02/12 06:46:47;;;;;;;5.47;2.25;;;;;;;;;;6204925;23;20015;-72
2022/02/12 06:49:12;;;;;;;9.17;2.80;;;;;;;;;;6214445;23;20071;-73
2022/02/12 06:51:38;;;;;;;10.63;2.17;;;;;;;;;;6214239;23;20001;-73
2022/02/12 06:54:03;;;;;;;5.83;2.13;;;;;;;;;;6212803;23;20084;-72
2022/02/12 06:56:29;;;;;;;12.73;2.30;;;;;;;;;;6214195;23;20087;-72
2022/02/12 06:58:54;;;;;;;9.30;2.03;;;;;;;;;;6212997;23;19997;-72
2022/02/12 07:01:20;;;;;;;8.63;2.20;;;;;;;;;;6215070;23;20430;-73
2022/02/12 07:03:45;;;;;;;10.93;3.30;;;;;;;;;;6214506;23;20020;-73
2022/02/12 07:06:10;;;;;;;12.65;3.05;;;;;;;;;;6214308;23;19993;-73
2022/02/12 07:08:35;;;;;;;16.90;2.13;;;;;;;;;;6214554;23;20504;-72
2022/02/12 07:11:00;;;;;;;8.17;2.20;;;;;;;;;;6215059;23;20007;-72
2022/02/12 07:13:26;;;;;;;14.07;2.73;;;;;;;;;;6216559;23;20004;-72
2022/02/12 07:15:51;;;;;;;14.77;2.90;;;;;;;;;;6214114;23;20003;-72
2022/02/12 07:18:16;;;;;;;11.23;2.50;;;;;;;;;;6214574;23;20397;-73
2022/02/12 07:20:42;;;;;;;14.87;3.23;;;;;;;;;;6212623;23;20022;-72
2022/02/12 07:23:07;;;;;;;11.13;2.90;;;;;;;;;;6212528;23;19996;-73
2022/02/12 07:25:32;;;;;;;11.27;2.50;;;;;;;;;;6214277;23;20039;-73
2022/02/12 07:27:57;;;;;;;8.37;2.43;;;;;;;;;;6214293;23;20024;-73
2022/02/12 07:30:23;;;;;;;13.70;3.03;;;;;;;;;;6214223;23;20430;-73
2022/02/12 07:32:48;;;;;;;15.20;3.25;;;;;;;;;;6215060;23;20268;-72
2022/02/12 07:35:14;;;;;;;12.50;3.00;;;;;;;;;;6216159;23;20418;-72
2022/02/12 07:37:40;;;;;;;11.98;2.70;;;;;;;;;;6217441;23;20083;-73
2022/02/12 07:40:06;;;;;;;13.93;2.80;;;;;;;;;;6216431;23;19997;-73
2022/02/12 07:42:31;;;;;;;15.27;5.33;;;;;;;;;;6214689;23;20092;-72
2022/02/12 07:44:56;;;;;;;21.50;4.10;;;;;;;;;;6215345;23;19997;-72
2022/02/12 07:47:21;;;;;;;8.93;2.67;;;;;;;;;;6216606;23;20005;-73
2022/02/12 07:49:47;;;;;;;14.07;2.50;;;;;;;;;;6216954;23;20005;-72
2022/02/12 07:52:12;;;;;;;9.85;3.15;;;;;;;;;;6189677;23;20004;-73
2022/02/12 07:54:37;;;;;;;16.80;3.17;;;;;;;;;;6216401;23;20047;-72
2022/02/12 07:57:03;;;;;;;12.95;3.45;;;;;;;;;;6216246;23;20071;-72
2022/02/12 07:59:28;;;;;;;11.25;2.83;;;;;;;;;;6216083;23;20322;-72
2022/02/12 08:01:53;;;;;;;15.82;2.80;;;;;;;;;;6216389;23;19997;-73
2022/02/12 08:04:18;;;;;;;13.23;3.50;;;;;;;;;;6189047;23;20035;-73
2022/02/12 08:09:27;;;;;;;10.30;3.03;;;;;;;;;;6215434;23;20003;-72
2022/02/12 08:12:01;;;;;;;10.70;3.70;;;;;;;;;;6214614;23;20049;-72
2022/02/12 08:14:27;;;;;;;13.80;2.80;;;;;;;;;;6216711;23;19999;-72
2022/02/12 08:16:52;;;;;;;12.07;2.83;;;;;;;;;;6215513;23;19992;-72
2022/02/12 08:19:17;;;;;;;15.98;3.38;;;;;;;;;;6215674;23;20008;-74
2022/02/12 08:21:42;;;;;;;10.13;4.32;;;;;;;;;;6214729;23;20073;-73
2022/02/12 08:24:09;;;;;;;7.40;2.65;;;;;;;;;;6214303;23;20183;-73
2022/02/12 08:26:34;;;;;;;8.40;2.55;;;;;;;;;;6213716;23;19992;-72
2022/02/12 08:29:00;;;;;;;15.73;3.63;;;;;;;;;;6214066;23;19997;-72
2022/02/12 08:31:25;;;;;;;14.40;2.97;;;;;;;;;;6212210;23;20020;-73
2022/02/12 08:33:51;;;;;;;13.48;2.60;;;;;;;;;;6213499;23;20410;-72
2022/02/12 08:36:16;;;;;;;9.40;3.25;;;;;;;;;;6213601;23;20323;-73
2022/02/12 08:38:41;;;;;;;11.65;2.97;;;;;;;;;;6214325;23;20026;-72
2022/02/12 08:41:06;;;;;;;15.87;3.37;;;;;;;;;;6187268;23;20179;-72
2022/02/12 08:43:31;;;;;;;14.33;2.73;;;;;;;;;;6213526;23;20471;-72
2022/02/12 08:45:57;;;;;;;16.55;3.42;;;;;;;;;;6213448;23;20000;-72
2022/02/12 08:48:22;;;;;;;11.02;2.78;;;;;;;;;;6213632;23;20078;-72
2022/02/12 08:50:47;;;;;;;8.45;2.70;;;;;;;;;;6187313;23;20001;-73
2022/02/12 08:53:12;;;;;;;13.48;3.20;;;;;;;;;;6188957;23;20448;-73
2022/02/12 08:55:38;;;;;;;8.68;2.83;;;;;;;;;;6215448;23;20095;-73
2022/02/12 08:58:03;;;;;;;12.45;3.20;;;;;;;;;;6188471;23;20058;-73
2022/02/12 09:00:28;;;;;;;11.82;2.75;;;;;;;;;;6215429;23;20047;-72
2022/02/12 09:02:54;;;;;;;6.57;2.05;;;;;;;;;;6188623;23;20000;-73
2022/02/12 09:05:20;;;;;;;10.18;2.40;;;;;;;;;;6215223;23;20484;-73
2022/02/12 09:07:45;;;;;;;11.43;2.58;;;;;;;;;;6215351;23;20003;-73
2022/02/12 09:10:10;;;;;;;15.75;3.00;;;;;;;;;;6215246;23;20020;-73
2022/02/12 09:12:36;;;;;;;9.60;2.53;;;;;;;;;;6214869;23;20047;-72
2022/02/12 09:15:01;;;;;;;9.00;2.20;;;;;;;;;;6215209;23;20370;-73
2022/02/12 09:17:26;;;;;;;9.40;1.92;;;;;;;;;;6188483;23;20354;-72
2022/02/12 09:19:52;;;;;;;7.07;1.92;;;;;;;;;;6215381;23;20020;-72
2022/02/12 09:22:17;;;;;;;10.98;1.90;;;;;;;;;;6214887;23;19997;-73
2022/02/12 09:24:43;;;;;;;6.38;1.67;;;;;;;;;;6215360;23;20387;-72
2022/02/12 09:27:08;;;;;;;7.22;1.70;;;;;;;;;;6214932;23;20001;-73
2022/02/12 09:29:33;;;;;;;22.27;4.63;;;;;;;;;;6215321;23;20488;-73
2022/02/12 09:31:58;;;;;;;9.68;2.90;;;;;;;;;;6216743;23;20076;-72
2022/02/12 09:34:24;;;;;;;11.48;2.50;;;;;;;;;;6188285;23;20065;-72
2022/02/12 09:36:49;;;;;;;9.70;1.77;;;;;;;;;;6213218;23;20005;-73
2022/02/12 09:39:15;;;;;;;7.53;2.05;;;;;;;;;;6214941;23;20003;-72
2022/02/12 09:41:40;;;;;;;8.68;2.00;;;;;;;;;;6188186;23;20001;-73
2022/02/12 09:44:06;;;;;;;7.63;2.25;;;;;;;;;;6214884;23;20448;-73
2022/02/12 09:46:46;;;;;;;12.93;2.13;;;;;;;;;;6202222;23;20004;-72
2022/02/12 09:49:12;;;;;;;7.40;2.20;;;;;;;;;;6214838;23;19993;-73
2022/02/12 09:51:37;;;;;;;11.07;2.22;;;;;;;;;;6214783;23;19999;-72
2022/02/12 09:54:03;;;;;;;9.75;2.28;;;;;;;;;;6213189;23;20453;-72
2022/02/12 09:56:28;;;;;;;13.38;2.13;;;;;;;;;;6214635;23;20107;-72
2022/02/12 09:58:53;;;;;;;6.97;1.88;;;;;;;;;;6214861;23;20331;-72
2022/02/12 10:01:19;;;;;;;8.95;1.50;;;;;;;;;;6215054;23;20044;-73
2022/02/12 10:03:45;;;;;;;9.07;1.73;;;;;;;;;;6214916;23;19997;-73
2022/02/12 10:06:11;;;;;;;6.00;1.80;;;;;;;;;;6214942;23;20091;-73
2022/02/12 10:08:37;;;;;;;7.88;2.03;;;;;;;;;;6215190;23;20491;-73
2022/02/12 10:11:13;;;;;;;7.35;2.00;;;;;;;;;;6213244;23;20061;-73
2022/02/12 10:13:39;;;;;;;11.02;1.80;;;;;;;;;;6214686;23;20023;-73
2022/02/12 10:16:04;;;;;;;6.20;1.52;;;;;;;;;;6214702;23;20028;-72
2022/02/12 10:18:31;;;;;;;5.50;1.80;;;;;;;;;;6213269;23;20011;-72
2022/02/12 10:20:56;;;;;;;5.97;1.52;;;;;;;;;;6213743;23;20000;-72
2022/02/12 10:23:27;;;;;;;8.88;1.85;;;;;;;;;;6214767;23;20001;-73
2022/02/12 10:26:02;;;;;;;4.80;1.85;;;;;;;;;;6214535;23;20000;-73
2022/02/12 10:28:27;;;;;;;9.30;1.38;;;;;;;;;;6214648;23;20008;-73
2022/02/12 10:30:54;;;;;;;5.03;1.42;;;;;;;;;;6213089;23;20000;-73
2022/02/12 10:33:20;;;;;;;8.52;2.17;;;;;;;;;;6212912;23;20008;-73
2022/02/12 10:35:53;;;;;;;10.80;1.73;;;;;;;;;;6214268;23;20043;-73
2022/02/12 10:38:18;;;;;;;6.32;1.27;;;;;;;;;;6214203;23;20088;-73
2022/02/12 10:41:02;;;;;;;6.50;1.33;;;;;;;;;;6214566;23;19992;-73
2022/02/12 10:43:28;;;;;;;5.60;0.90;;;;;;;;;;6214456;23;20047;-73
2022/02/12 10:45:53;;;;;;;9.05;1.50;;;;;;;;;;6214272;23;20040;-73
2022/02/12 10:48:19;;;;;;;13.18;1.98;;;;;;;;;;6214631;22;20155;-73
2022/02/12 10:50:44;;;;;;;7.43;1.55;;;;;;;;;;6214281;23;19997;-75
2022/02/12 10:53:09;;;;;;;9.20;1.92;;;;;;;;;;6216149;23;20080;-74
2022/02/12 10:55:37;;;;;;;11.32;1.70;;;;;;;;;;6217792;23;20003;-75
2022/02/12 10:58:06;;;;;;;6.28;1.15;;;;;;;;;;6216420;23;20054;-74
2022/02/12 11:00:32;;;;;;;4.38;1.17;;;;;;;;;;6214075;23;20022;-73
2022/02/12 11:02:59;;;;;;;7.38;1.30;;;;;;;;;;6213718;23;19993;-75
2022/02/12 11:05:26;;;;;;;7.25;0.98;;;;;;;;;;6213782;23;20004;-75
2022/02/12 11:07:54;;;;;;;10.20;4.18;;;;;;;;;;6213529;23;20000;-75
2022/02/12 11:10:20;;;;;;;7.35;2.10;;;;;;;;;;6216563;23;20043;-75
2022/02/12 11:12:45;;;;;;;5.63;1.65;;;;;;;;;;6218524;23;20000;-74
2022/02/12 11:15:11;;;;;;;7.03;1.52;;;;;;;;;;6214647;23;20007;-76
2022/02/12 11:17:37;;;;;;;6.32;1.15;;;;;;;;;;6213983;23;20022;-76
2022/02/12 11:20:03;;;;;;;6.72;2.00;;;;;;;;;;6212042;23;20007;-76
2022/02/12 11:22:28;;;;;;;10.05;1.80;;;;;;;;;;6211489;23;20004;-75
2022/02/12 11:24:54;;;;;;;8.30;1.80;;;;;;;;;;6213796;23;20039;-76
2022/02/12 11:27:23;;;;;;;5.05;1.45;;;;;;;;;;6213803;23;20000;-76
2022/02/12 11:29:50;;;;;;;5.28;1.38;;;;;;;;;;6213476;23;19997;-74
2022/02/12 11:32:19;;;;;;;5.30;1.38;;;;;;;;;;6213615;23;20000;-76
2022/02/12 11:34:50;;;;;;;4.00;1.45;;;;;;;;;;6213340;23;20122;-76
2022/02/12 11:37:17;;;;;;;3.92;0.95;;;;;;;;;;6211531;23;20005;-75
2022/02/12 11:40:03;;;;;;;4.78;1.10;;;;;;;;;;6213450;23;20016;-76
2022/02/12 11:42:46;;;;;;;11.20;1.70;;;;;;;;;;6214379;23;20007;-75
2022/02/12 11:45:29;;;;;;;3.80;1.13;;;;;;;;;;6214539;23;20100;-75
2022/02/12 11:48:13;;;;;;;8.27;1.25;;;;;;;;;;6214941;23;20000;-77
2022/02/12 11:50:49;;;;;;;2.70;0.80;;;;;;;;;;6215924;23;20027;-77
2022/02/12 11:53:48;;;;;;;3.80;0.88;;;;;;;;;;6213054;23;20012;-76
2022/02/12 11:56:14;;;;;;;3.85;0.90;;;;;;;;;;6165457;23;20005;-75
2022/02/12 11:58:42;;;;;;;3.88;1.02;;;;;;;;;;6213370;23;20050;-75
2022/02/12 12:01:23;;;;;;;4.05;1.30;;;;;;;;;;6213760;23;20067;-76
2022/02/12 12:04:00;;;;;;;9.32;1.42;;;;;;;;;;6213529;23;20001;-76
2022/02/12 12:06:25;;;;;;;7.65;1.40;;;;;;;;;;6213724;23;19996;-78
2022/02/12 12:09:06;;;;;;;5.25;1.10;;;;;;;;;;6213310;23;20004;-77
2022/02/12 12:11:33;;;;;;;6.47;2.22;;;;;;;;;;6213492;23;20004;-76
2022/02/12 12:14:18;;;;;;;8.00;2.40;;;;;;;;;;6213424;23;20028;-76
2022/02/12 12:16:51;;;;;;;5.32;1.60;;;;;;;;;;6213205;23;20076;-77
2022/02/12 12:19:17;;;;;;;6.00;1.73;;;;;;;;;;6213140;23;20024;-78
2022/02/12 12:21:42;;;;;;;5.53;1.75;;;;;;;;;;6213112;23;19992;-79
2022/02/12 12:24:11;;;;;;;6.43;1.60;;;;;;;;;;6213307;23;20347;-77
2022/02/12 12:26:45;;;;;;;8.32;1.80;;;;;;;;;;6214090;23;20028;-77
2022/02/12 12:32:05;;;;;;;5.40;1.92;;;;;;;;;;6215309;23;20008;-77
2022/02/12 12:34:31;;;;;;;8.25;1.65;;;;;;;;;;6213559;23;19997;-77
2022/02/12 12:36:59;;;;;;;7.05;1.80;;;;;;;;;;6216205;23;20004;-77
2022/02/12 12:39:32;;;;;;;4.78;1.40;;;;;;;;;;6216805;23;20067;-78
2022/02/12 12:41:58;;;;;;;6.25;1.35;;;;;;;;;;6216555;23;20000;-77
2022/02/12 12:44:23;;;;;;;4.32;1.13;;;;;;;;;;6215026;23;20067;-77
2022/02/12 12:46:53;;;;;;;5.00;1.42;;;;;;;;;;6216575;23;20019;-77
2022/02/12 12:49:33;;;;;;;5.10;1.63;;;;;;;;;;6214626;23;19996;-77
2022/02/12 12:51:59;;;;;;;5.85;1.73;;;;;;;;;;6214540;23;20001;-77
2022/02/12 12:54:34;;;;;;;5.20;1.63;;;;;;;;;;6188434;23;20479;-76
2022/02/12 12:57:01;;;;;;;8.52;1.98;;;;;;;;;;6214554;23;20000;-76
2022/02/12 12:59:26;;;;;;;5.80;1.73;;;;;;;;;;6215206;23;19997;-77
2022/02/12 13:02:01;;;;;;;5.53;1.50;;;;;;;;;;6215416;23;19997;-77
2022/02/12 13:04:26;;;;;;;3.78;1.40;;;;;;;;;;6216946;23;20019;-78
2022/02/12 13:06:53;;;;;;;5.47;1.90;;;;;;;;;;6217042;23;20418;-76
2022/02/12 13:09:19;;;;;;;5.03;1.65;;;;;;;;;;6216975;23;20031;-75
2022/02/12 13:11:44;;;;;;;6.22;1.65;;;;;;;;;;6217064;23;19992;-76
2022/02/12 13:14:10;;;;;;;3.95;0.90;;;;;;;;;;6215359;23;20005;-75
2022/02/12 13:16:40;;;;;;;9.18;1.80;;;;;;;;;;6214652;23;19999;-76
2022/02/12 13:19:14;;;;;;;6.05;2.13;;;;;;;;;;6214447;23;20047;-75
2022/02/12 13:21:48;;;;;;;5.93;1.92;;;;;;;;;;6214492;23;20047;-76
2022/02/12 13:24:15;;;;;;;7.10;2.38;;;;;;;;;;6213306;23;20517;-76
2022/02/12 13:26:43;;;;;;;6.80;1.55;;;;;;;;;;6215709;23;20072;-75
2022/02/12 13:29:22;;;;;;;5.63;1.85;;;;;;;;;;6215882;23;20001;-76
2022/02/12 13:31:50;;;;;;;4.35;1.30;;;;;;;;;;6214948;23;19997;-75
2022/02/12 13:34:17;;;;;;;3.85;1.42;;;;;;;;;;6188588;23;20028;-76
2022/02/12 13:36:43;;;;;;;4.43;1.52;;;;;;;;;;6215052;23;20062;-75
2022/02/12 13:39:08;;;;;;;8.15;1.50;;;;;;;;;;6187944;23;20430;-76
2022/02/12 13:41:39;;;;;;;4.13;1.23;;;;;;;;;;6213333;23;20083;-75
2022/02/12 13:44:05;;;;;;;8.65;1.40;;;;;;;;;;6188041;23;20020;-75
2022/02/12 13:46:34;;;;;;;10.07;2.10;;;;;;;;;;6214734;23;19992;-74
2022/02/12 13:49:12;;;;;;;8.10;1.50;;;;;;;;;;6214059;23;20009;-75
2022/02/12 13:51:47;;;;;;;7.07;2.03;;;;;;;;;;6214145;23;19993;-75
2022/02/12 13:54:13;;;;;;;10.23;1.60;;;;;;;;;;6214237;23;20024;-76
2022/02/12 13:56:38;;;;;;;6.13;1.63;;;;;;;;;;6214021;23;20434;-74
2022/02/12 13:59:04;;;;;;;5.95;1.20;;;;;;;;;;6213921;23;20003;-75
2022/02/12 14:01:29;;;;;;;7.85;1.40;;;;;;;;;;6214207;23;20004;-75
2022/02/12 14:03:54;;;;;;;7.80;2.03;;;;;;;;;;6213972;23;20024;-75
2022/02/12 14:06:19;;;;;;;5.47;1.35;;;;;;;;;;6215261;23;20286;-75
2022/02/12 14:08:44;;;;;;;5.60;1.50;;;;;;;;;;6213004;23;20000;-76
2022/02/12 14:11:10;;;;;;;4.77;1.23;;;;;;;;;;6214363;23;20219;-75
2022/02/12 14:13:35;;;;;;;5.20;1.50;;;;;;;;;;6213787;23;20723;-76
2022/02/12 14:16:00;;;;;;;6.75;1.65;;;;;;;;;;6212509;23;20011;-76
2022/02/12 14:18:26;;;;;;;4.18;1.58;;;;;;;;;;6213945;23;20004;-75
2022/02/12 14:20:51;;;;;;;6.55;2.08;;;;;;;;;;6187292;23;20480;-76
2022/02/12 14:23:17;;;;;;;4.85;1.50;;;;;;;;;;6213477;23;20371;-76
2022/02/12 14:25:42;;;;;;;5.95;1.50;;;;;;;;;;6213908;23;20419;-74
2022/02/12 14:28:11;;;;;;;5.68;1.70;;;;;;;;;;6214080;23;20066;-75
2022/02/12 14:30:36;;;;;;;4.75;1.90;;;;;;;;;;6214077;23;20000;-75
2022/02/12 14:33:01;;;;;;;8.88;2.45;;;;;;;;;;6186835;23;20334;-74
2022/02/12 14:35:27;;;;;;;9.13;2.03;;;;;;;;;;6213749;23;20048;-75
2022/02/12 14:37:52;;;;;;;9.20;1.80;;;;;;;;;;6213515;23;20238;-75
2022/02/12 14:40:18;;;;;;;8.27;2.00;;;;;;;;;;6213365;23;20238;-76
2022/02/12 14:42:44;;;;;;;5.38;1.55;;;;;;;;;;6212896;23;20112;-74
2022/02/12 14:45:09;;;;;;;6.40;1.63;;;;;;;;;;6213825;23;20020;-73